createdAt,value
2023-08-02T00:02:56.629Z,50.17
2023-08-02T00:08:00.808Z,50.36
2023-08-02T00:13:03.670Z,50.39
2023-08-02T00:18:06.750Z,50.54
2023-08-02T00:23:11.078Z,50.39
2023-08-02T00:28:14.155Z,50.52
2023-08-02T00:33:17.245Z,50.54
2023-08-02T00:38:22.232Z,50.61
2023-08-02T00:43:25.066Z,50.72
2023-08-02T00:48:28.021Z,50.82
2023-08-02T00:53:32.396Z,50.65
2023-08-02T00:58:35.687Z,50.68
2023-08-02T01:03:38.735Z,50.63
2023-08-02T01:08:45.233Z,50.85
2023-08-02T01:13:51.344Z,50.69
2023-08-02T01:18:54.423Z,50.79
2023-08-02T01:23:58.705Z,50.90
2023-08-02T01:29:03.379Z,50.92
2023-08-02T01:34:06.265Z,51.03
2023-08-02T01:39:10.392Z,51.14
2023-08-02T01:44:13.345Z,51.07
2023-08-02T01:49:16.291Z,50.93
2023-08-02T01:54:21.443Z,51.13
2023-08-02T01:59:24.369Z,51.18
2023-08-02T02:04:27.453Z,51.21
2023-08-02T02:09:31.884Z,51.30
2023-08-02T02:14:34.767Z,51.13
2023-08-02T02:19:37.556Z,51.32
2023-08-02T02:24:41.766Z,51.41
2023-08-02T02:29:44.761Z,51.26
2023-08-02T02:34:47.633Z,51.20
2023-08-02T02:39:52.070Z,51.23
2023-08-02T02:44:55.120Z,51.17
2023-08-02T02:49:59.588Z,51.36
2023-08-02T02:55:03.743Z,51.18
2023-08-02T03:00:09.687Z,51.31
2023-08-02T03:05:12.550Z,51.46
2023-08-02T03:10:16.793Z,51.43
2023-08-02T03:15:19.673Z,51.19
2023-08-02T03:20:22.474Z,51.42
2023-08-02T03:25:26.776Z,51.19
2023-08-02T03:30:29.992Z,51.26
2023-08-02T03:35:32.919Z,51.26
2023-08-02T03:40:37.135Z,51.42
2023-08-02T03:45:40.003Z,51.65
2023-08-02T03:50:42.898Z,51.54
2023-08-02T03:55:47.148Z,51.73
2023-08-02T04:00:50.038Z,51.83
2023-08-02T04:05:52.840Z,51.80
2023-08-02T04:10:57.087Z,51.64
2023-08-02T04:16:00.053Z,51.77
2023-08-02T04:21:02.971Z,51.69
2023-08-02T04:26:12.192Z,51.82
2023-08-02T04:31:15.173Z,51.86
2023-08-02T04:36:18.137Z,51.65
2023-08-02T04:41:22.353Z,51.59
2023-08-02T04:46:27.486Z,51.45
2023-08-02T04:51:30.467Z,51.69
2023-08-02T04:56:34.867Z,51.57
2023-08-02T05:01:37.996Z,51.39
2023-08-02T05:06:42.112Z,51.58
2023-08-02T05:11:47.166Z,51.64
2023-08-02T05:16:50.196Z,51.65
2023-08-02T05:21:54.613Z,51.57
2023-08-02T05:26:58.883Z,51.59
2023-08-02T05:32:02.201Z,51.50
2023-08-02T05:37:06.678Z,51.65
2023-08-02T05:42:11.575Z,51.80
2023-08-02T05:47:14.760Z,51.82
2023-08-02T05:52:22.401Z,51.78
2023-08-02T05:57:28.495Z,51.62
2023-08-02T06:02:31.727Z,51.56
2023-08-02T06:07:34.923Z,51.57
2023-08-02T06:12:39.250Z,51.46
2023-08-02T06:17:42.182Z,51.56
2023-08-02T06:22:45.048Z,51.46
2023-08-02T06:27:49.364Z,51.45
2023-08-02T06:32:52.322Z,51.55
2023-08-02T06:37:55.344Z,49.75
2023-08-02T06:42:59.514Z,50.64
2023-08-02T06:48:02.523Z,51.02
2023-08-02T06:53:08.641Z,51.25
2023-08-02T06:58:19.812Z,51.65
2023-08-02T07:03:27.816Z,50.71
2023-08-02T07:08:31.022Z,51.04
2023-08-02T07:13:37.007Z,50.64
2023-08-02T07:18:40.321Z,50.95
2023-08-02T07:23:43.570Z,50.54
2023-08-02T07:28:48.945Z,50.26
2023-08-02T07:33:53.786Z,50.24
2023-08-02T07:38:57.348Z,50.52
2023-08-02T07:44:01.806Z,50.67
2023-08-02T07:49:05.329Z,50.61
2023-08-02T07:54:13.848Z,50.57
2023-08-02T07:59:21.489Z,50.50
2023-08-02T08:04:24.681Z,50.54
2023-08-02T08:09:27.683Z,50.43
2023-08-02T08:14:32.261Z,50.50
2023-08-02T08:19:35.424Z,50.32
2023-08-02T08:24:38.349Z,50.39
2023-08-02T08:29:42.614Z,50.21
2023-08-02T08:34:45.455Z,50.37
2023-08-02T08:39:51.561Z,50.36
2023-08-02T08:45:04.939Z,49.99
2023-08-02T08:50:09.730Z,49.92
2023-08-02T08:55:12.567Z,50.16
2023-08-02T09:00:17.628Z,50.06
2023-08-02T09:05:20.897Z,50.36
2023-08-02T09:10:23.833Z,50.46
2023-08-02T09:15:28.380Z,50.57
2023-08-02T09:20:31.255Z,50.54
2023-08-02T09:25:34.165Z,50.34
2023-08-02T09:30:38.652Z,50.13
2023-08-02T09:35:51.525Z,50.45
2023-08-02T09:41:35.929Z,50.08
2023-08-02T09:46:27.239Z,49.80
2023-08-02T09:51:40.432Z,49.96
2023-08-02T09:56:43.974Z,50.09
2023-08-02T10:01:48.886Z,49.98
2023-08-02T10:06:54.443Z,49.91
2023-08-02T10:12:00.055Z,49.57
2023-08-02T10:17:04.791Z,49.73
2023-08-02T10:22:07.929Z,49.72
2023-08-02T10:27:11.145Z,49.87
2023-08-02T10:32:16.225Z,49.78
2023-08-02T10:37:20.530Z,49.99
2023-08-02T10:42:24.866Z,50.04
2023-08-02T10:47:29.689Z,50.11
2023-08-02T10:52:33.416Z,50.01
2023-08-02T10:57:36.537Z,50.76
2023-08-02T11:02:48.328Z,51.71
2023-08-02T11:08:01.408Z,52.45
2023-08-02T11:13:04.564Z,53.21
2023-08-02T11:18:10.669Z,53.53
2023-08-02T11:23:23.635Z,53.35
2023-08-02T11:28:26.664Z,53.30
2023-08-02T11:33:31.077Z,53.71
2023-08-02T11:38:34.147Z,52.98
2023-08-02T11:43:37.438Z,53.24
2023-08-02T11:48:42.068Z,51.94
2023-08-02T11:53:49.812Z,52.76
2023-08-02T11:58:52.774Z,52.37
2023-08-02T12:03:58.061Z,52.16
2023-08-02T12:09:03.198Z,52.27
2023-08-02T12:14:07.478Z,52.41
2023-08-02T12:19:11.695Z,52.47
2023-08-02T12:24:14.984Z,52.29
2023-08-02T12:29:24.467Z,52.10
2023-08-02T12:34:29.364Z,52.46
2023-08-02T12:39:32.217Z,52.30
2023-08-02T12:44:35.180Z,52.53
2023-08-02T12:49:39.428Z,52.45
2023-08-02T12:54:42.694Z,52.72
2023-08-02T12:59:45.774Z,52.43
2023-08-02T13:04:50.215Z,52.37
2023-08-02T13:09:53.131Z,52.22
2023-08-02T13:14:56.515Z,52.00
2023-08-02T13:20:01.023Z,51.74
2023-08-02T13:25:05.048Z,51.40
2023-08-02T13:30:09.286Z,51.32
2023-08-02T13:35:13.996Z,51.41
2023-08-02T13:40:17.359Z,50.78
2023-08-02T13:45:20.676Z,50.80
2023-08-02T13:50:24.927Z,50.75
2023-08-02T13:55:28.069Z,50.79
2023-08-02T14:00:30.998Z,50.71
2023-08-02T14:05:35.503Z,50.47
2023-08-02T14:10:40.331Z,50.75
2023-08-02T14:15:43.491Z,51.01
2023-08-02T14:20:47.909Z,51.05
2023-08-02T14:25:50.973Z,51.03
2023-08-02T14:30:53.904Z,50.89
2023-08-02T14:35:58.481Z,50.82
2023-08-02T14:41:02.603Z,51.07
2023-08-02T14:46:05.847Z,50.99
2023-08-02T14:51:10.455Z,50.99
2023-08-02T14:56:14.470Z,51.25
2023-08-02T15:01:17.560Z,51.13
2023-08-02T15:06:26.235Z,50.98
2023-08-02T15:11:29.754Z,50.99
2023-08-02T15:16:33.089Z,50.94
2023-08-02T15:21:39.644Z,51.08
2023-08-02T15:26:42.980Z,50.99
2023-08-02T15:31:46.302Z,50.79
2023-08-02T15:36:50.915Z,51.31
2023-08-02T15:41:53.821Z,51.29
2023-08-02T15:46:56.972Z,50.68
2023-08-02T15:52:01.336Z,50.38
2023-08-02T15:57:04.763Z,42.00
2023-08-02T16:02:08.312Z,41.25
2023-08-02T16:07:12.777Z,39.59
2023-08-02T16:12:17.339Z,38.26
2023-08-02T16:17:22.520Z,41.99
2023-08-02T16:22:26.838Z,43.78
2023-08-02T16:27:29.733Z,44.10
2023-08-02T16:32:32.646Z,44.33
2023-08-02T16:37:37.081Z,45.28
2023-08-02T16:42:40.078Z,46.44
2023-08-02T16:47:43.180Z,47.54
2023-08-02T16:52:47.501Z,47.92
2023-08-02T16:57:50.381Z,50.06
2023-08-02T17:02:53.315Z,50.87
2023-08-02T17:07:57.853Z,51.28
2023-08-02T17:13:00.896Z,52.10
2023-08-02T17:18:04.690Z,51.88
2023-08-02T17:23:09.547Z,52.22
2023-08-02T17:28:12.433Z,52.57
2023-08-02T17:33:15.474Z,52.83
2023-08-02T17:38:19.867Z,53.96
2023-08-02T17:43:23.189Z,55.07
2023-08-02T17:48:26.152Z,56.03
2023-08-02T17:53:33.390Z,56.12
2023-08-02T17:58:38.309Z,56.88
2023-08-02T18:03:42.823Z,58.20
2023-08-02T18:08:48.486Z,58.08
2023-08-02T18:13:51.627Z,59.33
2023-08-02T18:18:54.620Z,60.78
2023-08-02T18:23:59.175Z,60.52
2023-08-02T18:29:02.218Z,60.96
2023-08-02T18:34:05.110Z,61.03
2023-08-02T18:39:11.056Z,60.16
2023-08-02T18:44:14.020Z,59.49
2023-08-02T18:49:16.941Z,60.97
2023-08-02T18:54:21.531Z,60.60
2023-08-02T18:59:24.388Z,59.84
2023-08-02T19:04:27.197Z,59.63
2023-08-02T19:09:32.040Z,60.07
2023-08-02T19:14:35.045Z,60.11
2023-08-02T19:19:37.945Z,58.55
2023-08-02T19:24:43.925Z,58.14
2023-08-02T19:29:46.804Z,58.53
2023-08-02T19:34:52.466Z,58.22
2023-08-02T19:39:56.714Z,57.82
2023-08-02T19:44:59.891Z,58.66
2023-08-02T19:50:02.811Z,57.79
2023-08-02T19:55:08.488Z,57.72
2023-08-02T20:00:18.880Z,58.73
2023-08-02T20:05:54.676Z,56.68
2023-08-02T20:11:01.198Z,57.77
2023-08-02T20:16:05.940Z,56.52
2023-08-02T20:21:20.958Z,56.29
2023-08-02T20:26:26.791Z,55.13
2023-08-02T20:31:35.387Z,55.55
2023-08-02T20:36:38.364Z,55.90
2023-08-02T20:41:43.225Z,56.38
2023-08-02T20:46:46.419Z,55.46
2023-08-02T20:51:49.619Z,55.07
2023-08-02T20:56:54.726Z,55.09
2023-08-02T21:01:57.678Z,55.29
2023-08-02T21:07:11.282Z,55.52
2023-08-02T21:12:16.249Z,56.27
2023-08-02T21:17:20.396Z,55.88
2023-08-02T21:22:23.237Z,56.33
2023-08-02T21:27:28.208Z,56.61
2023-08-02T21:32:41.043Z,57.86
2023-08-02T21:37:44.810Z,56.66
2023-08-02T21:42:49.209Z,57.54
2023-08-02T21:47:52.290Z,56.63
2023-08-02T21:52:55.164Z,56.49
2023-08-02T21:58:00.482Z,57.99
2023-08-02T22:03:03.535Z,58.32
2023-08-02T22:08:10.475Z,58.90
2023-08-02T22:13:15.707Z,58.34
2023-08-02T22:18:18.642Z,58.68
2023-08-02T22:23:21.502Z,59.25
2023-08-02T22:28:25.821Z,59.57
2023-08-02T22:33:28.700Z,59.79
2023-08-02T22:38:46.806Z,61.28
2023-08-02T22:43:52.756Z,61.98
2023-08-02T22:50:20.019Z,61.27
2023-08-02T22:54:21.011Z,61.16
2023-08-02T22:59:25.266Z,62.06
2023-08-02T23:04:28.325Z,61.93
2023-08-02T23:09:31.259Z,62.05
2023-08-02T23:14:35.489Z,62.71
2023-08-02T23:19:38.323Z,63.43
2023-08-02T23:24:42.772Z,64.15
2023-08-02T23:29:47.062Z,64.67
2023-08-02T23:34:49.947Z,63.47
2023-08-02T23:39:52.806Z,62.95
2023-08-02T23:44:57.007Z,62.35
2023-08-02T23:49:59.876Z,62.44
2023-08-02T23:55:02.964Z,61.92
